sensor_id;sensor_type;location;lat;lon;timestamp;pressure;altitude;pressure_sealevel;temperature;humidity
72959;BME280;60008;50.826;6.896;2023-09-12T00:01:05;100621.28;;;21.53;100.00
72959;BME280;60008;50.826;6.896;2023-09-12T00:03:58;100617.66;;;21.36;100.00
72959;BME280;60008;50.826;6.896;2023-09-12T00:06:50;100620.22;;;21.19;100.00
72959;BME280;60008;50.826;6.896;2023-09-12T00:09:35;100617.06;;;21.34;100.00
72959;BME280;60008;50.826;6.896;2023-09-12T00:12:34;100612.94;;;21.08;100.00
72959;BME280;60008;50.826;6.896;2023-09-12T00:15:33;100625.44;;;21.03;100.00
72959;BME280;60008;50.826;6.896;2023-09-12T00:18:27;100616.75;;;20.89;100.00
72959;BME280;60008;50.826;6.896;2023-09-12T00:21:13;100611.41;;;20.71;100.00
72959;BME280;60008;50.826;6.896;2023-09-12T00:24:05;100608.06;;;20.87;100.00
72959;BME280;60008;50.826;6.896;2023-09-12T00:26:51;100614.50;;;20.86;100.00
72959;BME280;60008;50.826;6.896;2023-09-12T00:29:42;100601.94;;;20.80;100.00
72959;BME280;60008;50.826;6.896;2023-09-12T00:32:28;100587.44;;;20.81;100.00
72959;BME280;60008;50.826;6.896;2023-09-12T00:35:19;100590.00;;;20.88;100.00
72959;BME280;60008;50.826;6.896;2023-09-12T00:38:11;100588.25;;;20.82;100.00
72959;BME280;60008;50.826;6.896;2023-09-12T00:41:03;100590.13;;;20.81;100.00
72959;BME280;60008;50.826;6.896;2023-09-12T00:43:48;100586.97;;;20.84;100.00
72959;BME280;60008;50.826;6.896;2023-09-12T00:46:40;100584.41;;;20.89;100.00
72959;BME280;60008;50.826;6.896;2023-09-12T00:49:27;100582.38;;;20.85;100.00
72959;BME280;60008;50.826;6.896;2023-09-12T00:52:20;100590.13;;;20.81;100.00
72959;BME280;60008;50.826;6.896;2023-09-12T00:55:06;100593.28;;;20.78;100.00
72959;BME280;60008;50.826;6.896;2023-09-12T00:57:58;100601.03;;;20.86;100.00
72959;BME280;60008;50.826;6.896;2023-09-12T01:00:44;100600.16;;;20.74;100.00
72959;BME280;60008;50.826;6.896;2023-09-12T01:03:36;100592.78;;;20.69;100.00
72959;BME280;60008;50.826;6.896;2023-09-12T01:06:28;100583.41;;;20.72;100.00
72959;BME280;60008;50.826;6.896;2023-09-12T01:09:20;100581.31;;;20.74;100.00
72959;BME280;60008;50.826;6.896;2023-09-12T01:12:06;100586.81;;;20.67;100.00
72959;BME280;60008;50.826;6.896;2023-09-12T01:14:57;100583.50;;;20.54;100.00
72959;BME280;60008;50.826;6.896;2023-09-12T01:17:43;100592.09;;;20.44;100.00
72959;BME280;60008;50.826;6.896;2023-09-12T01:20:36;100588.47;;;20.20;100.00
72959;BME280;60008;50.826;6.896;2023-09-12T01:27:19;100590.88;;;20.10;100.00
72959;BME280;60008;50.826;6.896;2023-09-12T01:30:10;100599.34;;;19.96;100.00
72959;BME280;60008;50.826;6.896;2023-09-12T01:32:57;100603.22;;;19.82;100.00
72959;BME280;60008;50.826;6.896;2023-09-12T01:35:48;100603.44;;;19.98;100.00
72959;BME280;60008;50.826;6.896;2023-09-12T01:38:40;100597.75;;;20.06;100.00
72959;BME280;60008;50.826;6.896;2023-09-12T01:41:35;100594.22;;;20.06;100.00
72959;BME280;60008;50.826;6.896;2023-09-12T01:44:24;100601.72;;;20.04;100.00
72959;BME280;60008;50.826;6.896;2023-09-12T01:47:17;100600.69;;;20.05;100.00
72959;BME280;60008;50.826;6.896;2023-09-12T01:50:11;100594.22;;;20.06;100.00
72959;BME280;60008;50.826;6.896;2023-09-12T01:52:58;100585.56;;;20.04;100.00
72959;BME280;60008;50.826;6.896;2023-09-12T01:55:50;100589.16;;;19.98;100.00
72959;BME280;60008;50.826;6.896;2023-09-12T01:58:42;100581.72;;;20.00;100.00
72959;BME280;60008;50.826;6.896;2023-09-12T02:01:28;100581.78;;;19.93;100.00
72959;BME280;60008;50.826;6.896;2023-09-12T02:04:25;100591.34;;;19.89;100.00
72959;BME280;60008;50.826;6.896;2023-09-12T02:07:11;100585.06;;;19.95;100.00
72959;BME280;60008;50.826;6.896;2023-09-12T02:10:02;100593.25;;;20.00;100.00
72959;BME280;60008;50.826;6.896;2023-09-12T02:12:49;100597.47;;;19.96;100.00
72959;BME280;60008;50.826;6.896;2023-09-12T02:15:41;100607.56;;;19.83;100.00
72959;BME280;60008;50.826;6.896;2023-09-12T02:18:28;100615.84;;;19.81;100.00
72959;BME280;60008;50.826;6.896;2023-09-12T02:21:20;100615.09;;;19.74;100.00
72959;BME280;60008;50.826;6.896;2023-09-12T02:24:05;100616.22;;;19.67;100.00
72959;BME280;60008;50.826;6.896;2023-09-12T02:26:57;100616.28;;;19.60;100.00
72959;BME280;60008;50.826;6.896;2023-09-12T02:29:43;100613.03;;;19.51;100.00
72959;BME280;60008;50.826;6.896;2023-09-12T02:32:34;100611.72;;;19.36;100.00
72959;BME280;60008;50.826;6.896;2023-09-12T02:35:19;100610.28;;;19.40;100.00
72959;BME280;60008;50.826;6.896;2023-09-12T02:38:11;100611.91;;;19.41;100.00
72959;BME280;60008;50.826;6.896;2023-09-12T02:40:57;100598.84;;;19.44;100.00
72959;BME280;60008;50.826;6.896;2023-09-12T02:43:48;100597.69;;;19.34;100.00
72959;BME280;60008;50.826;6.896;2023-09-12T02:46:34;100594.50;;;19.43;100.00
72959;BME280;60008;50.826;6.896;2023-09-12T02:49:25;100585.97;;;19.53;100.00
72959;BME280;60008;50.826;6.896;2023-09-12T02:52:10;100593.00;;;19.54;100.00
72959;BME280;60008;50.826;6.896;2023-09-12T02:55:02;100597.31;;;19.55;100.00
72959;BME280;60008;50.826;6.896;2023-09-12T02:57:47;100600.53;;;19.64;100.00
72959;BME280;60008;50.826;6.896;2023-09-12T03:00:39;100588.88;;;19.70;100.00
72959;BME280;60008;50.826;6.896;2023-09-12T03:03:32;100596.22;;;19.81;100.00
72959;BME280;60008;50.826;6.896;2023-09-12T03:06:24;100593.56;;;19.92;100.00
72959;BME280;60008;50.826;6.896;2023-09-12T03:09:09;100584.31;;;19.88;100.00
72959;BME280;60008;50.826;6.896;2023-09-12T03:12:02;100583.13;;;20.02;100.00
72959;BME280;60008;50.826;6.896;2023-09-12T03:14:49;100579.50;;;20.08;100.00
72959;BME280;60008;50.826;6.896;2023-09-12T03:17:40;100580.72;;;20.12;100.00
72959;BME280;60008;50.826;6.896;2023-09-12T03:20:25;100577.31;;;20.17;100.00
72959;BME280;60008;50.826;6.896;2023-09-12T03:23:19;100582.94;;;20.15;100.00
72959;BME280;60008;50.826;6.896;2023-09-12T03:26:05;100575.09;;;20.14;100.00
72959;BME280;60008;50.826;6.896;2023-09-12T03:28:57;100581.09;;;20.16;100.00
72959;BME280;60008;50.826;6.896;2023-09-12T03:31:49;100579.44;;;20.15;100.00
72959;BME280;60008;50.826;6.896;2023-09-12T03:34:41;100577.31;;;20.17;100.00
72959;BME280;60008;50.826;6.896;2023-09-12T03:37:26;100573.59;;;20.18;100.00
72959;BME280;60008;50.826;6.896;2023-09-12T03:40:19;100576.38;;;20.30;100.00
72959;BME280;60008;50.826;6.896;2023-09-12T03:43:05;100567.53;;;20.23;100.00
72959;BME280;60008;50.826;6.896;2023-09-12T03:45:56;100570.22;;;20.23;100.00
72959;BME280;60008;50.826;6.896;2023-09-12T03:48:42;100576.25;;;20.25;100.00
72959;BME280;60008;50.826;6.896;2023-09-12T03:51:33;100570.03;;;20.24;100.00
72959;BME280;60008;50.826;6.896;2023-09-12T03:54:19;100574.50;;;20.30;100.00
72959;BME280;60008;50.826;6.896;2023-09-12T03:57:11;100578.84;;;20.31;100.00
72959;BME280;60008;50.826;6.896;2023-09-12T03:59:57;100578.00;;;20.31;100.00
72959;BME280;60008;50.826;6.896;2023-09-12T04:02:48;100568.75;;;20.27;100.00
72959;BME280;60008;50.826;6.896;2023-09-12T04:05:54;100567.25;;;20.31;100.00
72959;BME280;60008;50.826;6.896;2023-09-12T04:08:40;100566.66;;;20.29;100.00
72959;BME280;60008;50.826;6.896;2023-09-12T04:11:31;100562.56;;;20.26;100.00
72959;BME280;60008;50.826;6.896;2023-09-12T04:14:31;100557.81;;;20.22;100.00
72959;BME280;60008;50.826;6.896;2023-09-12T04:17:16;100553.66;;;20.26;100.00
72959;BME280;60008;50.826;6.896;2023-09-12T04:20:07;100543.25;;;20.29;100.00
72959;BME280;60008;50.826;6.896;2023-09-12T04:23:01;100543.63;;;20.33;100.00
72959;BME280;60008;50.826;6.896;2023-09-12T04:25:47;100532.34;;;20.24;100.00
72959;BME280;60008;50.826;6.896;2023-09-12T04:28:38;100533.97;;;20.25;100.00
72959;BME280;60008;50.826;6.896;2023-09-12T04:31:30;100512.81;;;20.29;100.00
72959;BME280;60008;50.826;6.896;2023-09-12T04:34:15;100498.00;;;20.19;100.00
72959;BME280;60008;50.826;6.896;2023-09-12T04:37:08;100480.22;;;20.18;100.00
72959;BME280;60008;50.826;6.896;2023-09-12T04:40:00;100490.13;;;20.25;100.00
72959;BME280;60008;50.826;6.896;2023-09-12T04:42:44;100528.38;;;20.27;100.00
72959;BME280;60008;50.826;6.896;2023-09-12T04:45:39;100529.56;;;20.31;100.00
72959;BME280;60008;50.826;6.896;2023-09-12T04:48:25;100537.50;;;20.26;100.00
72959;BME280;60008;50.826;6.896;2023-09-12T04:51:19;100550.78;;;20.20;100.00
72959;BME280;60008;50.826;6.896;2023-09-12T04:54:11;100545.47;;;20.14;100.00
72959;BME280;60008;50.826;6.896;2023-09-12T04:56:57;100546.44;;;20.19;100.00
72959;BME280;60008;50.826;6.896;2023-09-12T04:59:48;100550.94;;;20.26;100.00
72959;BME280;60008;50.826;6.896;2023-09-12T05:02:33;100545.28;;;20.15;100.00
72959;BME280;60008;50.826;6.896;2023-09-12T05:05:26;100556.41;;;20.19;100.00
72959;BME280;60008;50.826;6.896;2023-09-12T05:08:17;100565.53;;;20.18;100.00
72959;BME280;60008;50.826;6.896;2023-09-12T05:11:09;100556.94;;;20.09;100.00
72959;BME280;60008;50.826;6.896;2023-09-12T05:13:54;100573.78;;;20.05;100.00
72959;BME280;60008;50.826;6.896;2023-09-12T05:16:46;100573.63;;;20.00;100.00
72959;BME280;60008;50.826;6.896;2023-09-12T05:19:40;100589.84;;;19.93;100.00
72959;BME280;60008;50.826;6.896;2023-09-12T05:22:25;100595.91;;;19.89;100.00
72959;BME280;60008;50.826;6.896;2023-09-12T05:25:18;100615.56;;;19.89;100.00
72959;BME280;60008;50.826;6.896;2023-09-12T05:28:04;100619.38;;;20.00;100.00
72959;BME280;60008;50.826;6.896;2023-09-12T05:30:56;100624.09;;;19.86;100.00
72959;BME280;60008;50.826;6.896;2023-09-12T05:33:42;100625.34;;;19.84;100.00
72959;BME280;60008;50.826;6.896;2023-09-12T05:36:33;100609.28;;;19.77;100.00
72959;BME280;60008;50.826;6.896;2023-09-12T05:39:18;100607.56;;;19.83;100.00
72959;BME280;60008;50.826;6.896;2023-09-12T05:42:10;100602.47;;;19.93;100.00
72959;BME280;60008;50.826;6.896;2023-09-12T05:44:56;100603.44;;;19.98;100.00
72959;BME280;60008;50.826;6.896;2023-09-12T05:47:49;100604.88;;;19.83;100.00
72959;BME280;60008;50.826;6.896;2023-09-12T05:50:36;100608.53;;;19.88;100.00
72959;BME280;60008;50.826;6.896;2023-09-12T05:53:28;100606.38;;;19.97;100.00
72959;BME280;60008;50.826;6.896;2023-09-12T05:56:20;100593.78;;;20.09;100.00
72959;BME280;60008;50.826;6.896;2023-09-12T05:59:06;100589.97;;;20.16;100.00
72959;BME280;60008;50.826;6.896;2023-09-12T06:01:57;100588.22;;;20.22;100.00
72959;BME280;60008;50.826;6.896;2023-09-12T06:04:49;100600.56;;;20.48;100.00
72959;BME280;60008;50.826;6.896;2023-09-12T06:07:41;100601.78;;;20.63;100.00
72959;BME280;60008;50.826;6.896;2023-09-12T06:10:29;100610.28;;;20.78;100.00
72959;BME280;60008;50.826;6.896;2023-09-12T06:13:20;100599.88;;;20.94;100.00
72959;BME280;60008;50.826;6.896;2023-09-12T06:16:06;100602.59;;;21.05;100.00
72959;BME280;60008;50.826;6.896;2023-09-12T06:18:57;100608.97;;;21.22;100.00
72959;BME280;60008;50.826;6.896;2023-09-12T06:21:42;100609.56;;;21.36;100.00
72959;BME280;60008;50.826;6.896;2023-09-12T06:24:34;100608.72;;;21.59;100.00
72959;BME280;60008;50.826;6.896;2023-09-12T06:27:26;100606.50;;;21.67;100.00
72959;BME280;60008;50.826;6.896;2023-09-12T06:30:17;100614.94;;;21.71;100.00
72959;BME280;60008;50.826;6.896;2023-09-12T06:33:03;100601.69;;;21.92;100.00
72959;BME280;60008;50.826;6.896;2023-09-12T06:35:56;100601.22;;;21.96;100.00
72959;BME280;60008;50.826;6.896;2023-09-12T06:38:41;100597.91;;;21.93;100.00
72959;BME280;60008;50.826;6.896;2023-09-12T06:41:32;100590.63;;;21.82;100.00
72959;BME280;60008;50.826;6.896;2023-09-12T06:44:23;100590.16;;;22.09;100.00
72959;BME280;60008;50.826;6.896;2023-09-12T06:47:15;100592.84;;;22.09;100.00
72959;BME280;60008;50.826;6.896;2023-09-12T06:50:07;100591.13;;;22.31;100.00
72959;BME280;60008;50.826;6.896;2023-09-12T06:53:00;100596.72;;;22.41;100.00
72959;BME280;60008;50.826;6.896;2023-09-12T06:55:46;100595.22;;;22.33;100.00
72959;BME280;60008;50.826;6.896;2023-09-12T06:58:37;100586.03;;;22.34;100.00
72959;BME280;60008;50.826;6.896;2023-09-12T07:01:30;100590.25;;;22.02;100.00
72959;BME280;60008;50.826;6.896;2023-09-12T07:04:22;100587.94;;;21.94;100.00
72959;BME280;60008;50.826;6.896;2023-09-12T07:07:14;100591.44;;;22.06;100.00
72959;BME280;60008;50.826;6.896;2023-09-12T07:10:06;100583.59;;;22.33;100.00
72959;BME280;60008;50.826;6.896;2023-09-12T07:13:08;100581.63;;;22.28;100.00
72959;BME280;60008;50.826;6.896;2023-09-12T07:16:00;100574.28;;;22.40;100.00
72959;BME280;60008;50.826;6.896;2023-09-12T07:18:54;100573.84;;;22.32;100.00
72959;BME280;60008;50.826;6.896;2023-09-12T07:21:46;100566.91;;;22.36;100.00
72959;BME280;60008;50.826;6.896;2023-09-12T07:24:34;100572.28;;;22.08;100.00
72959;BME280;60008;50.826;6.896;2023-09-12T07:27:25;100572.88;;;22.10;100.00
72959;BME280;60008;50.826;6.896;2023-09-12T07:30:11;100571.53;;;22.24;100.00
72959;BME280;60008;50.826;6.896;2023-09-12T07:33:03;100578.31;;;21.98;100.00
72959;BME280;60008;50.826;6.896;2023-09-12T07:35:55;100581.56;;;22.12;100.00
72959;BME280;60008;50.826;6.896;2023-09-12T07:38:48;100578.63;;;22.13;100.00
72959;BME280;60008;50.826;6.896;2023-09-12T07:41:33;100585.84;;;22.24;100.00
72959;BME280;60008;50.826;6.896;2023-09-12T07:44:24;100583.34;;;22.06;100.00
72959;BME280;60008;50.826;6.896;2023-09-12T07:47:17;100574.81;;;22.26;100.00
72959;BME280;60008;50.826;6.896;2023-09-12T07:50:03;100589.66;;;22.12;100.00
72959;BME280;60008;50.826;6.896;2023-09-12T07:52:56;100589.88;;;22.10;100.00
72959;BME280;60008;50.826;6.896;2023-09-12T07:55:48;100581.13;;;22.03;100.00
72959;BME280;60008;50.826;6.896;2023-09-12T07:58:40;100572.69;;;22.28;100.00
72959;BME280;60008;50.826;6.896;2023-09-12T08:01:29;100574.72;;;22.49;100.00
72959;BME280;60008;50.826;6.896;2023-09-12T08:04:20;100579.44;;;22.70;100.00
72959;BME280;60008;50.826;6.896;2023-09-12T08:07:12;100578.31;;;22.99;100.00
72959;BME280;60008;50.826;6.896;2023-09-12T08:10:00;100576.28;;;23.06;100.00
72959;BME280;60008;50.826;6.896;2023-09-12T08:12:54;100576.28;;;23.06;100.00
72959;BME280;60008;50.826;6.896;2023-09-12T08:15:38;100578.81;;;22.96;100.00
72959;BME280;60008;50.826;6.896;2023-09-12T08:18:31;100573.31;;;23.08;100.00
72959;BME280;60008;50.826;6.896;2023-09-12T08:21:16;100575.09;;;23.52;100.00
72959;BME280;60008;50.826;6.896;2023-09-12T08:24:07;100581.91;;;23.05;100.00
72959;BME280;60008;50.826;6.896;2023-09-12T08:26:55;100584.78;;;23.32;100.00
72959;BME280;60008;50.826;6.896;2023-09-12T08:29:47;100587.38;;;23.60;100.00
72959;BME280;60008;50.826;6.896;2023-09-12T08:32:33;100602.31;;;23.62;100.00
72959;BME280;60008;50.826;6.896;2023-09-12T08:35:24;100585.69;;;23.76;100.00
72959;BME280;60008;50.826;6.896;2023-09-12T08:38:11;100606.38;;;24.25;100.00
72959;BME280;60008;50.826;6.896;2023-09-12T08:41:05;100595.03;;;25.87;100.00
72959;BME280;60008;50.826;6.896;2023-09-12T08:43:50;100587.38;;;27.67;100.00
72959;BME280;60008;50.826;6.896;2023-09-12T08:46:42;100589.84;;;28.32;100.00
72959;BME280;60008;50.826;6.896;2023-09-12T08:49:27;100597.16;;;28.47;100.00
72959;BME280;60008;50.826;6.896;2023-09-12T08:52:21;100601.53;;;28.38;100.00
72959;BME280;60008;50.826;6.896;2023-09-12T08:55:06;100605.91;;;29.22;100.00
72959;BME280;60008;50.826;6.896;2023-09-12T08:58:02;100609.44;;;29.80;100.00
72959;BME280;60008;50.826;6.896;2023-09-12T09:00:47;100610.50;;;27.85;100.00
72959;BME280;60008;50.826;6.896;2023-09-12T09:03:46;100608.22;;;28.66;100.00
72959;BME280;60008;50.826;6.896;2023-09-12T09:06:33;100620.22;;;28.60;100.00
72959;BME280;60008;50.826;6.896;2023-09-12T09:09:28;100619.63;;;29.12;100.00
72959;BME280;60008;50.826;6.896;2023-09-12T09:12:14;100613.81;;;30.65;99.54
72959;BME280;60008;50.826;6.896;2023-09-12T09:15:28;100624.53;;;29.72;100.00
72959;BME280;60008;50.826;6.896;2023-09-12T09:18:19;100629.41;;;29.18;100.00
72959;BME280;60008;50.826;6.896;2023-09-12T09:21:20;100623.09;;;27.30;100.00
72959;BME280;60008;50.826;6.896;2023-09-12T09:24:13;100631.25;;;27.05;100.00
72959;BME280;60008;50.826;6.896;2023-09-12T09:27:07;100623.56;;;27.88;100.00
72959;BME280;60008;50.826;6.896;2023-09-12T09:29:58;100620.63;;;29.26;100.00
72959;BME280;60008;50.826;6.896;2023-09-12T09:32:43;100621.22;;;28.30;100.00
72959;BME280;60008;50.826;6.896;2023-09-12T09:35:41;100621.16;;;27.56;100.00
72959;BME280;60008;50.826;6.896;2023-09-12T09:38:26;100612.72;;;26.77;100.00
72959;BME280;60008;50.826;6.896;2023-09-12T09:41:22;100609.75;;;27.34;100.00
72959;BME280;60008;50.826;6.896;2023-09-12T09:44:08;100613.53;;;29.77;100.00
72959;BME280;60008;50.826;6.896;2023-09-12T09:47:01;100601.16;;;31.80;94.72
72959;BME280;60008;50.826;6.896;2023-09-12T09:49:51;100605.75;;;29.03;100.00
72959;BME280;60008;50.826;6.896;2023-09-12T09:52:43;100617.66;;;27.25;100.00
72959;BME280;60008;50.826;6.896;2023-09-12T09:55:29;100621.31;;;25.39;100.00
72959;BME280;60008;50.826;6.896;2023-09-12T09:58:23;100618.56;;;24.76;100.00
72959;BME280;60008;50.826;6.896;2023-09-12T10:01:22;100622.28;;;25.23;100.00
72959;BME280;60008;50.826;6.896;2023-09-12T10:04:14;100615.59;;;25.73;100.00
72959;BME280;60008;50.826;6.896;2023-09-12T10:07:16;100612.56;;;25.69;100.00
72959;BME280;60008;50.826;6.896;2023-09-12T10:10:09;100602.34;;;28.87;100.00
72959;BME280;60008;50.826;6.896;2023-09-12T10:13:03;100609.72;;;28.38;100.00
72959;BME280;60008;50.826;6.896;2023-09-12T10:15:49;100611.94;;;29.14;100.00
72959;BME280;60008;50.826;6.896;2023-09-12T10:18:46;100616.72;;;28.54;100.00
72959;BME280;60008;50.826;6.896;2023-09-12T10:21:43;100603.50;;;30.39;100.00
72959;BME280;60008;50.826;6.896;2023-09-12T10:24:38;100602.06;;;30.46;100.00
72959;BME280;60008;50.826;6.896;2023-09-12T10:27:24;100607.13;;;28.18;100.00
72959;BME280;60008;50.826;6.896;2023-09-12T10:30:16;100596.22;;;29.01;100.00
72959;BME280;60008;50.826;6.896;2023-09-12T10:33:04;100606.81;;;28.73;100.00
72959;BME280;60008;50.826;6.896;2023-09-12T10:35:59;100610.91;;;29.10;100.00
72959;BME280;60008;50.826;6.896;2023-09-12T10:38:50;100602.78;;;30.09;100.00
72959;BME280;60008;50.826;6.896;2023-09-12T10:41:42;100607.25;;;29.24;100.00
72959;BME280;60008;50.826;6.896;2023-09-12T10:44:28;100608.97;;;26.98;100.00
72959;BME280;60008;50.826;6.896;2023-09-12T10:47:19;100612.69;;;26.67;100.00
72959;BME280;60008;50.826;6.896;2023-09-12T10:50:07;100613.19;;;26.38;100.00
72959;BME280;60008;50.826;6.896;2023-09-12T10:53:14;100616.25;;;25.95;100.00
72959;BME280;60008;50.826;6.896;2023-09-12T11:02:36;100604.19;;;27.99;100.00
72959;BME280;60008;50.826;6.896;2023-09-12T11:08:25;100614.00;;;29.32;100.00
72959;BME280;60008;50.826;6.896;2023-09-12T11:11:20;100604.47;;;29.29;100.00
72959;BME280;60008;50.826;6.896;2023-09-12T11:14:12;100603.44;;;28.38;100.00
72959;BME280;60008;50.826;6.896;2023-09-12T11:20:02;100599.03;;;29.82;100.00
72959;BME280;60008;50.826;6.896;2023-09-12T11:23:09;100598.72;;;29.31;100.00
72959;BME280;60008;50.826;6.896;2023-09-12T11:26:05;100606.50;;;29.71;100.00
72959;BME280;60008;50.826;6.896;2023-09-12T11:28:51;100601.84;;;30.19;100.00
72959;BME280;60008;50.826;6.896;2023-09-12T11:31:54;100598.53;;;28.88;100.00
72959;BME280;60008;50.826;6.896;2023-09-12T11:34:43;100599.72;;;29.92;100.00
72959;BME280;60008;50.826;6.896;2023-09-12T11:37:36;100590.34;;;29.51;100.00
72959;BME280;60008;50.826;6.896;2023-09-12T11:40:43;100594.75;;;28.79;100.00
72959;BME280;60008;50.826;6.896;2023-09-12T11:43:29;100593.28;;;28.04;100.00
72959;BME280;60008;50.826;6.896;2023-09-12T11:46:22;100596.97;;;27.44;100.00
72959;BME280;60008;50.826;6.896;2023-09-12T11:49:07;100595.06;;;27.04;100.00
72959;BME280;60008;50.826;6.896;2023-09-12T11:51:59;100588.31;;;26.10;100.00
72959;BME280;60008;50.826;6.896;2023-09-12T11:54:44;100593.06;;;26.39;100.00
72959;BME280;60008;50.826;6.896;2023-09-12T11:57:36;100586.31;;;26.52;100.00
72959;BME280;60008;50.826;6.896;2023-09-12T12:00:22;100592.28;;;26.69;100.00
72959;BME280;60008;50.826;6.896;2023-09-12T12:03:22;100593.19;;;26.85;100.00
72959;BME280;60008;50.826;6.896;2023-09-12T12:06:22;100589.63;;;26.94;100.00
72959;BME280;60008;50.826;6.896;2023-09-12T12:09:14;100585.03;;;25.97;100.00
72959;BME280;60008;50.826;6.896;2023-09-12T12:12:14;100589.03;;;26.62;100.00
72959;BME280;60008;50.826;6.896;2023-09-12T12:15:09;100582.28;;;27.05;100.00
72959;BME280;60008;50.826;6.896;2023-09-12T12:17:56;100587.75;;;26.80;100.00
72959;BME280;60008;50.826;6.896;2023-09-12T12:20:47;100590.16;;;26.91;100.00
72959;BME280;60008;50.826;6.896;2023-09-12T12:23:32;100576.19;;;26.27;100.00
72959;BME280;60008;50.826;6.896;2023-09-12T12:26:24;100572.97;;;26.55;100.00
72959;BME280;60008;50.826;6.896;2023-09-12T12:29:10;100582.47;;;26.48;100.00
72959;BME280;60008;50.826;6.896;2023-09-12T12:32:05;100577.09;;;26.63;100.00
72959;BME280;60008;50.826;6.896;2023-09-12T12:34:51;100567.81;;;26.49;100.00
72959;BME280;60008;50.826;6.896;2023-09-12T12:38:02;100572.47;;;26.69;100.00
72959;BME280;60008;50.826;6.896;2023-09-12T12:40:52;100567.59;;;26.91;100.00
72959;BME280;60008;50.826;6.896;2023-09-12T12:43:43;100570.81;;;26.73;100.00
72959;BME280;60008;50.826;6.896;2023-09-12T12:46:47;100566.78;;;26.90;100.00
72959;BME280;60008;50.826;6.896;2023-09-12T12:49:39;100567.88;;;26.84;100.00
72959;BME280;60008;50.826;6.896;2023-09-12T12:52:33;100563.50;;;26.63;100.00
72959;BME280;60008;50.826;6.896;2023-09-12T12:55:26;100567.28;;;26.72;100.00
72959;BME280;60008;50.826;6.896;2023-09-12T12:58:17;100553.47;;;26.79;100.00
72959;BME280;60008;50.826;6.896;2023-09-12T13:01:03;100555.03;;;26.70;100.00
72959;BME280;60008;50.826;6.896;2023-09-12T13:04:01;100561.56;;;26.63;100.00
72959;BME280;60008;50.826;6.896;2023-09-12T13:06:59;100549.88;;;26.63;100.00
72959;BME280;60008;50.826;6.896;2023-09-12T13:09:51;100550.38;;;26.35;100.00
72959;BME280;60008;50.826;6.896;2023-09-12T13:12:36;100544.66;;;26.31;100.00
72959;BME280;60008;50.826;6.896;2023-09-12T13:15:29;100547.31;;;26.11;100.00
72959;BME280;60008;50.826;6.896;2023-09-12T13:18:14;100544.94;;;26.30;100.00
72959;BME280;60008;50.826;6.896;2023-09-12T13:21:06;100542.22;;;26.35;100.00
72959;BME280;60008;50.826;6.896;2023-09-12T13:23:51;100546.53;;;26.26;100.00
72959;BME280;60008;50.826;6.896;2023-09-12T13:26:46;100538.66;;;26.19;100.00
72959;BME280;60008;50.826;6.896;2023-09-12T13:29:37;100542.66;;;26.07;100.00
72959;BME280;60008;50.826;6.896;2023-09-12T13:32:29;100537.22;;;26.01;100.00
72959;BME280;60008;50.826;6.896;2023-09-12T13:35:21;100529.69;;;26.19;100.00
72959;BME280;60008;50.826;6.896;2023-09-12T13:38:13;100528.28;;;26.11;100.00
72959;BME280;60008;50.826;6.896;2023-09-12T13:40:58;100529.38;;;26.10;100.00
72959;BME280;60008;50.826;6.896;2023-09-12T13:43:50;100520.38;;;25.94;100.00
72959;BME280;60008;50.826;6.896;2023-09-12T13:46:36;100527.94;;;25.87;100.00
72959;BME280;60008;50.826;6.896;2023-09-12T13:49:28;100520.88;;;25.81;100.00
72959;BME280;60008;50.826;6.896;2023-09-12T13:52:25;100517.53;;;25.69;100.00
72959;BME280;60008;50.826;6.896;2023-09-12T13:55:18;100517.81;;;25.68;100.00
72959;BME280;60008;50.826;6.896;2023-09-12T13:58:31;100511.94;;;25.39;100.00
72959;BME280;60008;50.826;6.896;2023-09-12T14:01:31;100526.22;;;25.19;100.00
72959;BME280;60008;50.826;6.896;2023-09-12T14:04:21;100532.53;;;25.30;100.00
72959;BME280;60008;50.826;6.896;2023-09-12T14:07:22;100528.38;;;25.22;100.00
72959;BME280;60008;50.826;6.896;2023-09-12T14:10:13;100521.38;;;25.26;100.00
72959;BME280;60008;50.826;6.896;2023-09-12T14:13:15;100514.75;;;25.49;100.00
72959;BME280;60008;50.826;6.896;2023-09-12T14:16:08;100510.16;;;25.55;100.00
72959;BME280;60008;50.826;6.896;2023-09-12T14:18:53;100512.91;;;25.65;100.00
72959;BME280;60008;50.826;6.896;2023-09-12T14:21:46;100505.81;;;25.54;100.00
72959;BME280;60008;50.826;6.896;2023-09-12T14:24:33;100510.44;;;25.58;100.00
72959;BME280;60008;50.826;6.896;2023-09-12T14:27:25;100506.69;;;25.74;100.00
72959;BME280;60008;50.826;6.896;2023-09-12T14:30:11;100508.03;;;25.67;100.00
72959;BME280;60008;50.826;6.896;2023-09-12T14:33:05;100511.34;;;25.79;100.00
72959;BME280;60008;50.826;6.896;2023-09-12T14:36:00;100503.75;;;25.81;100.00
72959;BME280;60008;50.826;6.896;2023-09-12T14:38:49;100508.66;;;25.84;100.00
72959;BME280;60008;50.826;6.896;2023-09-12T14:41:41;100509.25;;;26.06;100.00
72959;BME280;60008;50.826;6.896;2023-09-12T14:44:29;100503.84;;;26.11;100.00
72959;BME280;60008;50.826;6.896;2023-09-12T14:47:24;100493.44;;;25.93;100.00
72959;BME280;60008;50.826;6.896;2023-09-12T14:50:11;100487.59;;;26.31;100.00
72959;BME280;60008;50.826;6.896;2023-09-12T14:53:07;100481.91;;;26.33;100.00
72959;BME280;60008;50.826;6.896;2023-09-12T14:55:59;100480.81;;;26.44;100.00
72959;BME280;60008;50.826;6.896;2023-09-12T14:58:51;100470.47;;;26.51;100.00